createdAt,value
2019-03-01T00:03:40.314Z,31.80
2019-03-01T00:09:55.001Z,32.23
2019-03-01T00:16:16.212Z,26.87
2019-03-01T00:22:28.545Z,33.07
2019-03-01T00:28:49.568Z,37.43
2019-03-01T00:35:16.775Z,33.40
2019-03-01T00:41:48.486Z,30.20
2019-03-01T00:47:53.145Z,30.90
2019-03-01T00:53:57.874Z,28.80
2019-03-01T01:00:02.609Z,29.30
2019-03-01T01:06:07.202Z,35.40
2019-03-01T01:12:11.918Z,32.80
2019-03-01T01:18:16.508Z,35.93
2019-03-01T01:24:21.073Z,36.03
2019-03-01T01:30:25.632Z,26.67
2019-03-01T01:36:31.140Z,27.57
2019-03-01T01:42:35.706Z,38.00
2019-03-01T01:48:40.262Z,34.67
2019-03-01T01:54:44.862Z,47.57
2019-03-01T02:00:49.582Z,48.03
2019-03-01T02:06:54.199Z,42.47
2019-03-01T02:13:00.021Z,39.97
2019-03-01T02:19:04.652Z,44.20
2019-03-01T02:25:13.450Z,43.60
2019-03-01T02:31:18.922Z,44.10
2019-03-01T02:37:23.524Z,47.13
2019-03-01T02:43:28.363Z,40.83
2019-03-01T02:49:33.298Z,40.07
2019-03-01T02:55:37.856Z,41.50
2019-03-01T03:01:42.417Z,40.30
2019-03-01T03:07:54.564Z,38.23
2019-03-01T03:13:59.257Z,35.37
2019-03-01T03:20:04.593Z,33.83
2019-03-01T03:26:09.465Z,29.90
2019-03-01T03:32:14.188Z,27.10
2019-03-01T03:38:18.834Z,26.13
2019-03-01T03:44:23.473Z,23.87
2019-03-01T03:50:28.829Z,25.47
2019-03-01T03:56:34.019Z,27.97
2019-03-01T04:02:38.897Z,23.67
2019-03-01T04:08:43.600Z,21.70
2019-03-01T04:14:48.284Z,21.13
2019-03-01T04:20:52.946Z,23.90
2019-03-01T04:26:57.545Z,23.93
2019-03-01T04:33:02.364Z,20.77
2019-03-01T04:39:08.508Z,22.73
2019-03-01T04:45:16.088Z,22.33
2019-03-01T04:51:20.737Z,20.53
2019-03-01T04:57:25.442Z,18.10
2019-03-01T05:03:30.029Z,21.63
2019-03-01T05:09:34.606Z,22.30
2019-03-01T05:15:39.168Z,19.10
2019-03-01T05:21:43.751Z,22.03
2019-03-01T05:27:48.321Z,19.60
2019-03-01T05:33:52.879Z,21.60
2019-03-01T05:39:57.524Z,20.47
2019-03-01T05:46:02.128Z,27.63
2019-03-01T05:52:06.762Z,30.63
2019-03-01T05:58:32.976Z,25.40
2019-03-01T06:04:48.208Z,24.87
2019-03-01T06:10:57.838Z,25.53
2019-03-01T06:17:36.696Z,24.43
2019-03-01T06:23:57.687Z,25.40
2019-03-01T06:30:38.567Z,25.27
2019-03-01T06:37:03.006Z,23.20
2019-03-01T06:43:18.176Z,21.27
2019-03-01T06:49:24.493Z,30.50
2019-03-01T06:55:36.700Z,28.53
2019-03-01T07:01:42.006Z,25.93
2019-03-01T07:07:46.577Z,25.83
2019-03-01T07:13:51.145Z,20.37
2019-03-01T07:19:55.702Z,25.00
2019-03-01T07:26:00.745Z,29.10
2019-03-01T07:32:05.320Z,24.17
2019-03-01T07:38:09.872Z,28.80
2019-03-01T07:44:14.435Z,20.43
2019-03-01T07:50:19.091Z,23.10
2019-03-01T07:56:23.709Z,25.47
2019-03-01T08:02:29.826Z,20.80
2019-03-01T08:08:34.811Z,26.63
2019-03-01T08:14:40.681Z,19.77
2019-03-01T08:20:45.330Z,25.13
2019-03-01T08:26:49.945Z,22.80
2019-03-01T08:32:54.600Z,22.27
2019-03-01T08:39:00.816Z,20.13
2019-03-01T08:45:10.133Z,21.03
2019-03-01T08:51:14.821Z,18.80
2019-03-01T08:57:22.579Z,23.67
2019-03-01T09:03:36.271Z,18.20
2019-03-01T09:09:40.815Z,20.50
2019-03-01T09:15:46.175Z,20.43
2019-03-01T09:21:52.034Z,20.40
2019-03-01T09:27:57.635Z,20.43
2019-03-01T09:34:02.537Z,21.17
2019-03-01T09:40:07.907Z,20.13
2019-03-01T09:46:12.534Z,21.20
2019-03-01T09:52:17.112Z,20.83
2019-03-01T09:58:22.067Z,29.87
2019-03-01T10:04:26.640Z,19.80
2019-03-01T10:10:34.320Z,20.90
2019-03-01T10:16:38.963Z,26.63
2019-03-01T10:22:43.610Z,24.33
2019-03-01T10:28:48.245Z,24.93
2019-03-01T10:34:52.876Z,29.70
2019-03-01T10:40:57.576Z,26.00
2019-03-01T10:47:02.284Z,26.00
2019-03-01T10:53:07.046Z,27.03
2019-03-01T10:59:11.681Z,19.50
2019-03-01T11:05:16.393Z,22.57
2019-03-01T11:11:21.110Z,23.27
2019-03-01T11:17:25.680Z,21.93
2019-03-01T11:23:30.407Z,21.40
2019-03-01T11:29:35.121Z,22.37
2019-03-01T11:35:39.743Z,24.47
2019-03-01T11:41:46.867Z,28.63
2019-03-01T11:47:51.526Z,30.33
2019-03-01T11:53:56.119Z,29.50
2019-03-01T12:00:01.059Z,31.00
2019-03-01T12:06:05.695Z,34.30
2019-03-01T12:12:10.264Z,42.17
2019-03-01T12:18:14.818Z,56.70
2019-03-01T12:24:19.389Z,54.13
2019-03-01T12:30:28.203Z,49.30
2019-03-01T12:36:32.904Z,58.67
2019-03-01T12:42:37.489Z,57.70
2019-03-01T12:48:42.061Z,58.17
2019-03-01T12:54:46.703Z,54.87
2019-03-01T13:00:51.282Z,60.70
2019-03-01T13:06:55.853Z,54.20
2019-03-01T13:13:02.059Z,60.67
2019-03-01T13:19:06.932Z,59.97
2019-03-01T13:25:12.522Z,68.30
2019-03-01T13:31:17.071Z,68.57
2019-03-01T13:37:21.655Z,59.50
2019-03-01T13:43:27.349Z,73.27
2019-03-01T13:49:32.678Z,66.40
2019-03-01T13:55:37.242Z,70.40
2019-03-01T14:01:42.173Z,80.30
2019-03-01T14:07:48.081Z,80.30
2019-03-01T14:13:52.639Z,71.13
2019-03-01T14:19:57.613Z,68.43
2019-03-01T14:26:02.296Z,74.60
2019-03-01T14:32:07.851Z,63.80
2019-03-01T14:38:12.422Z,74.57
2019-03-01T14:44:17.044Z,70.20
2019-03-01T14:50:24.363Z,78.70
2019-03-01T14:56:34.724Z,81.67
2019-03-01T15:02:56.287Z,80.57
2019-03-01T15:09:01.019Z,106.27
2019-03-01T15:15:10.480Z,67.77
2019-03-01T15:21:15.886Z,77.37
2019-03-01T15:27:20.467Z,87.77
2019-03-01T15:33:25.029Z,80.57
2019-03-01T15:39:29.947Z,64.03
2019-03-01T15:45:36.722Z,93.77
2019-03-01T15:51:41.401Z,87.23
2019-03-01T15:57:45.976Z,71.03
2019-03-01T16:03:50.682Z,72.70
2019-03-01T16:09:58.296Z,63.23
2019-03-01T16:16:02.015Z,64.57
2019-03-01T16:22:06.711Z,71.50
2019-03-01T16:28:11.440Z,78.77
2019-03-01T16:34:17.391Z,61.70
2019-03-01T16:40:22.089Z,48.67
2019-03-01T16:46:28.466Z,61.83
2019-03-01T16:52:33.105Z,57.03
2019-03-01T16:58:37.688Z,48.37
2019-03-01T17:04:42.255Z,52.57
2019-03-01T17:10:46.837Z,54.07
2019-03-01T17:16:51.418Z,45.07
2019-03-01T17:22:55.995Z,45.73
2019-03-01T17:29:03.085Z,39.93
2019-03-01T17:35:10.994Z,31.20
2019-03-01T17:41:15.633Z,39.20
2019-03-01T17:47:20.255Z,40.00
2019-03-01T17:53:24.922Z,40.20
2019-03-01T17:59:30.074Z,37.40
2019-03-01T18:05:37.053Z,35.90
2019-03-01T18:11:44.564Z,40.70
2019-03-01T18:17:47.459Z,39.07
2019-03-01T18:23:52.179Z,32.00
2019-03-01T18:29:56.901Z,33.53
2019-03-01T18:36:01.517Z,29.73
2019-03-01T18:42:06.162Z,30.83
2019-03-01T18:48:10.862Z,24.03
2019-03-01T18:54:15.447Z,21.90
2019-03-01T19:00:35.673Z,34.07
2019-03-01T19:06:39.448Z,18.57
2019-03-01T19:12:44.828Z,28.50
2019-03-01T19:18:51.286Z,21.10
2019-03-01T19:24:56.806Z,16.40
2019-03-01T19:31:01.866Z,19.07
2019-03-01T19:37:06.445Z,15.07
2019-03-01T19:43:11.151Z,15.33
2019-03-01T19:49:15.691Z,15.00
2019-03-01T19:55:20.488Z,15.47
2019-03-01T20:01:25.396Z,26.93
2019-03-01T20:07:30.534Z,20.30
2019-03-01T20:13:35.245Z,17.40
2019-03-01T20:19:39.834Z,12.03
2019-03-01T20:25:47.560Z,18.50
2019-03-01T20:31:50.881Z,22.90
2019-03-01T20:37:55.573Z,18.50
2019-03-01T20:44:01.146Z,24.00
2019-03-01T20:50:11.904Z,16.67
2019-03-01T20:56:16.987Z,13.13
2019-03-01T21:02:21.853Z,21.00
2019-03-01T21:08:29.066Z,25.60
2019-03-01T21:14:33.050Z,21.57
2019-03-01T21:20:37.980Z,14.10
2019-03-01T21:26:42.550Z,17.10
2019-03-01T21:32:50.728Z,17.30
2019-03-01T21:38:53.382Z,18.43
2019-03-01T21:44:58.084Z,16.60
2019-03-01T21:51:03.371Z,37.87
2019-03-01T21:57:07.950Z,22.27
2019-03-01T22:03:12.582Z,24.07
2019-03-01T22:09:20.612Z,21.83
2019-03-01T22:15:29.377Z,18.23
2019-03-01T22:21:34.273Z,39.30
2019-03-01T22:27:38.869Z,28.20
2019-03-01T22:33:43.439Z,24.70
2019-03-01T22:39:51.481Z,19.13
2019-03-01T22:45:55.054Z,21.50
2019-03-01T22:51:59.877Z,20.33
2019-03-01T22:58:05.681Z,21.23
2019-03-01T23:04:11.169Z,17.37
2019-03-01T23:10:18.442Z,15.60
2019-03-01T23:16:22.252Z,17.57
2019-03-01T23:22:26.830Z,18.30
2019-03-01T23:28:31.810Z,17.53
2019-03-01T23:34:38.927Z,18.07
2019-03-01T23:40:42.664Z,16.63
2019-03-01T23:46:47.282Z,17.83
2019-03-01T23:52:54.948Z,19.53
2019-03-01T23:58:59.747Z,12.97
